Time;durP1;ratioP1;P1;durP2;ratioP2;P2;SDS_P1;SDS_P2;PMS_P1;PMS_P2;Temp;Humidity;BMP_temperature;BMP_pressure;BME280_temperature;BME280_humidity;BME280_pressure;Samples;Min_cycle;Max_cycle;Signal;HPM_P1;HPM_P2
2021/09/03 00:00:29;;;;;;;;;;;16.10;88.80;;;;;;5032359;28;19924;-84
2021/09/03 00:02:55;;;;;;;;;;;16.10;88.80;;;;;;5038608;28;19924;-85
2021/09/03 00:05:21;;;;;;;;;;;16.10;88.80;;;;;;5051718;28;20568;-85
2021/09/03 00:07:47;;;;;;;;;;;16.10;88.80;;;;;;5051400;28;20253;-85
2021/09/03 00:10:14;;;;;;;;;;;16.00;88.80;;;;;;5049720;28;20308;-85
2021/09/03 00:12:40;;;;;;;;;;;16.00;88.80;;;;;;5048079;28;19984;-85
2021/09/03 00:15:07;;;;;;;;;;;16.00;89.00;;;;;;5045668;28;19913;-84
2021/09/03 00:17:33;;;;;;;;;;;16.00;89.00;;;;;;5031722;28;19909;-85
2021/09/03 00:19:58;;;;;;;;;;;16.00;89.00;;;;;;5043678;28;19919;-85
2021/09/03 00:22:24;;;;;;;;;;;16.00;89.00;;;;;;5040846;28;19909;-85
2021/09/03 00:24:49;;;;;;;;;;;16.00;89.00;;;;;;5056700;28;20346;-85
2021/09/03 00:27:15;;;;;;;;;;;15.90;88.90;;;;;;5047829;28;19916;-85
2021/09/03 00:29:40;;;;;;;;;;;15.90;89.60;;;;;;5069883;28;19959;-85
2021/09/03 00:32:06;;;;;;;;;;;15.90;89.00;;;;;;5041307;28;19960;-85
2021/09/03 00:34:31;;;;;;;;;;;15.90;89.00;;;;;;5057049;28;20273;-85
2021/09/03 00:36:57;;;;;;;;;;;15.90;89.10;;;;;;5072121;28;19977;-85
2021/09/03 00:39:22;;;;;;;;;;;15.90;89.10;;;;;;5055489;28;19913;-85
2021/09/03 00:41:48;;;;;;;;;;;15.90;89.10;;;;;;5044932;28;19917;-85
2021/09/03 00:44:13;;;;;;;;;;;15.80;89.10;;;;;;5052561;28;19909;-84
2021/09/03 00:46:39;;;;;;;;;;;15.80;89.30;;;;;;5060099;28;19913;-84
2021/09/03 00:49:04;;;;;;;;;;;15.80;89.30;;;;;;5072269;28;19909;-84
2021/09/03 00:51:30;;;;;;;;;;;15.70;89.30;;;;;;5052389;28;19956;-85
2021/09/03 00:53:55;;;;;;;;;;;15.70;89.30;;;;;;5051678;28;19905;-85
2021/09/03 00:56:21;;;;;;;;;;;15.70;89.40;;;;;;5067819;28;19910;-85
2021/09/03 00:58:47;;;;;;;;;;;15.70;89.40;;;;;;5052419;28;19959;-84
2021/09/03 01:01:12;;;;;;;;;;;15.70;89.40;;;;;;5054456;28;20285;-84
2021/09/03 01:03:38;;;;;;;;;;;15.70;89.40;;;;;;5071560;28;19913;-84
2021/09/03 01:06:05;;;;;;;;;;;15.70;89.50;;;;;;5071998;28;19940;-84
2021/09/03 01:08:31;;;;;;;;;;;15.60;89.60;;;;;;5063795;28;19913;-84
2021/09/03 01:10:57;;;;;;;;;;;15.60;89.60;;;;;;5055313;28;19935;-84
2021/09/03 01:13:22;;;;;;;;;;;15.60;89.80;;;;;;5057887;28;20421;-84
2021/09/03 01:15:48;;;;;;;;;;;15.50;89.80;;;;;;5040876;28;19915;-84
2021/09/03 01:18:13;;;;;;;;;;;15.50;89.90;;;;;;5055843;28;19916;-85
2021/09/03 01:20:39;;;;;;;;;;;15.50;90.00;;;;;;5035508;28;19916;-84
2021/09/03 01:23:05;;;;;;;;;;;15.50;90.00;;;;;;5054754;28;19909;-84
2021/09/03 01:25:30;;;;;;;;;;;15.40;90.10;;;;;;5088157;28;20348;-84
2021/09/03 01:27:56;;;;;;;;;;;15.40;90.10;;;;;;5063916;28;19913;-84
2021/09/03 01:30:21;;;;;;;;;;;15.40;90.10;;;;;;5068849;28;19917;-85
2021/09/03 01:32:48;;;;;;;;;;;15.40;90.20;;;;;;5052815;28;19912;-85
2021/09/03 01:35:14;;;;;;;;;;;15.40;90.10;;;;;;5068496;28;19913;-85
2021/09/03 01:37:40;;;;;;;;;;;15.40;90.20;;;;;;5044813;28;19909;-84
2021/09/03 01:40:06;;;;;;;;;;;15.30;90.20;;;;;;5051143;28;19999;-84
2021/09/03 01:42:31;;;;;;;;;;;15.30;90.20;;;;;;5046649;28;19956;-84
2021/09/03 01:44:57;;;;;;;;;;;15.40;90.30;;;;;;5047773;28;19915;-85
2021/09/03 01:47:22;;;;;;;;;;;15.30;90.30;;;;;;5049711;28;19920;-84
2021/09/03 01:49:48;;;;;;;;;;;15.30;90.30;;;;;;5050838;28;19920;-84
2021/09/03 01:52:13;;;;;;;;;;;15.30;90.30;;;;;;5064550;28;20786;-85
2021/09/03 01:54:39;;;;;;;;;;;15.30;90.40;;;;;;5051080;28;19976;-84
2021/09/03 01:57:04;;;;;;;;;;;15.20;90.30;;;;;;5067082;28;19909;-84
2021/09/03 01:59:30;;;;;;;;;;;15.20;90.40;;;;;;5071129;28;19967;-85
2021/09/03 02:01:55;;;;;;;;;;;15.20;90.40;;;;;;5052444;28;19920;-85
2021/09/03 02:04:21;;;;;;;;;;;15.10;90.40;;;;;;5068059;28;20003;-84
2021/09/03 02:06:46;;;;;;;;;;;15.10;90.50;;;;;;5063904;28;19919;-85
2021/09/03 02:09:12;;;;;;;;;;;15.20;90.70;;;;;;5062211;28;19913;-85
2021/09/03 02:11:37;;;;;;;;;;;15.10;90.70;;;;;;5064565;28;20273;-85
2021/09/03 02:14:03;;;;;;;;;;;15.10;90.70;;;;;;5068655;28;19966;-84
2021/09/03 02:16:28;;;;;;;;;;;15.10;90.70;;;;;;5055068;28;19970;-85
2021/09/03 02:18:54;;;;;;;;;;;15.10;90.70;;;;;;5053658;28;20010;-85
2021/09/03 02:21:19;;;;;;;;;;;15.10;90.70;;;;;;5070412;28;19916;-85
2021/09/03 02:23:45;;;;;;;;;;;15.10;90.70;;;;;;5049028;28;19915;-85
2021/09/03 02:26:10;;;;;;;;;;;15.00;90.70;;;;;;5045113;28;20357;-85
2021/09/03 02:28:36;;;;;;;;;;;15.10;90.70;;;;;;5056584;28;20426;-84
2021/09/03 02:31:01;;;;;;;;;;;15.00;90.80;;;;;;5046509;28;19913;-85
2021/09/03 02:33:28;;;;;;;;;;;14.90;90.80;;;;;;5053348;28;19992;-84
2021/09/03 02:35:53;;;;;;;;;;;14.90;90.80;;;;;;5051399;28;19904;-84
2021/09/03 02:38:19;;;;;;;;;;;14.90;90.80;;;;;;5050487;28;19915;-85
2021/09/03 02:40:44;;;;;;;;;;;15.00;90.80;;;;;;5034041;28;19909;-85
2021/09/03 02:43:10;;;;;;;;;;;15.00;90.80;;;;;;5059586;28;20004;-85
2021/09/03 02:45:35;;;;;;;;;;;14.90;90.80;;;;;;5058568;28;19970;-84
2021/09/03 02:48:01;;;;;;;;;;;14.90;90.80;;;;;;5061054;28;19904;-84
2021/09/03 02:50:28;;;;;;;;;;;14.90;90.80;;;;;;5034400;28;19917;-84
2021/09/03 02:52:55;;;;;;;;;;;14.90;90.80;;;;;;5033601;28;19905;-85
2021/09/03 02:55:21;;;;;;;;;;;14.90;90.80;;;;;;5034070;28;19909;-84
2021/09/03 02:57:47;;;;;;;;;;;14.90;90.80;;;;;;5070342;28;19912;-85
2021/09/03 03:00:13;;;;;;;;;;;14.80;90.80;;;;;;5050814;28;19921;-84
2021/09/03 03:02:38;;;;;;;;;;;14.80;90.90;;;;;;5055713;28;19938;-85
2021/09/03 03:05:04;;;;;;;;;;;14.80;90.90;;;;;;5066598;28;19991;-84
2021/09/03 03:07:29;;;;;;;;;;;14.80;90.90;;;;;;5051906;28;19955;-85
2021/09/03 03:09:55;;;;;;;;;;;14.70;90.90;;;;;;5052093;28;19912;-84
2021/09/03 03:12:21;;;;;;;;;;;14.80;90.90;;;;;;5049706;28;19917;-84
2021/09/03 03:14:46;;;;;;;;;;;14.70;90.90;;;;;;5077391;28;19909;-84
2021/09/03 03:17:12;;;;;;;;;;;14.70;90.90;;;;;;5052751;28;20277;-85
2021/09/03 03:19:37;;;;;;;;;;;14.70;90.80;;;;;;5044093;28;19959;-84
2021/09/03 03:22:03;;;;;;;;;;;14.70;90.90;;;;;;5030148;28;19913;-84
2021/09/03 03:24:29;;;;;;;;;;;14.70;91.00;;;;;;5041706;28;19963;-84
2021/09/03 03:26:55;;;;;;;;;;;14.60;90.90;;;;;;5049083;28;19913;-85
2021/09/03 03:29:21;;;;;;;;;;;14.60;91.00;;;;;;5035129;28;19924;-84
2021/09/03 03:31:47;;;;;;;;;;;14.60;90.90;;;;;;5054782;28;20373;-84
2021/09/03 03:34:12;;;;;;;;;;;14.60;90.90;;;;;;5063549;28;20011;-84
2021/09/03 03:36:38;;;;;;;;;;;14.60;90.90;;;;;;5060584;28;19948;-85
2021/09/03 03:39:04;;;;;;;;;;;14.60;90.90;;;;;;5052939;28;20309;-84
2021/09/03 03:41:29;;;;;;;;;;;14.60;90.90;;;;;;5039378;28;19901;-84
2021/09/03 03:43:55;;;;;;;;;;;14.50;90.90;;;;;;5061788;28;19917;-84
2021/09/03 03:46:20;;;;;;;;;;;14.50;90.90;;;;;;5049274;28;19909;-84
2021/09/03 03:48:46;;;;;;;;;;;14.50;90.90;;;;;;5033071;28;19999;-84
2021/09/03 03:51:11;;;;;;;;;;;14.50;90.90;;;;;;5059715;28;20278;-84
2021/09/03 03:53:37;;;;;;;;;;;14.50;90.90;;;;;;5056825;28;20277;-84
2021/09/03 03:56:03;;;;;;;;;;;14.50;90.90;;;;;;5032557;28;19940;-84
2021/09/03 03:58:28;;;;;;;;;;;14.50;90.80;;;;;;5036276;28;19904;-84
2021/09/03 04:00:54;;;;;;;;;;;14.50;90.80;;;;;;5068712;28;19920;-84
2021/09/03 04:03:19;;;;;;;;;;;14.50;90.70;;;;;;5062988;28;19913;-84
2021/09/03 04:05:45;;;;;;;;;;;14.50;90.70;;;;;;5052955;28;19916;-84
2021/09/03 04:08:10;;;;;;;;;;;14.50;90.80;;;;;;5068078;28;19913;-84
2021/09/03 04:10:36;;;;;;;;;;;14.50;90.80;;;;;;5079063;28;20317;-85
2021/09/03 04:13:01;;;;;;;;;;;14.40;90.90;;;;;;5073179;28;20328;-85
2021/09/03 04:15:27;;;;;;;;;;;14.40;90.90;;;;;;5049996;28;19909;-84
2021/09/03 04:17:52;;;;;;;;;;;14.40;90.90;;;;;;5081364;28;19916;-84
2021/09/03 04:20:18;;;;;;;;;;;14.40;91.00;;;;;;5050044;28;19920;-85
2021/09/03 04:22:43;;;;;;;;;;;14.40;91.00;;;;;;5063228;28;19916;-84
2021/09/03 04:25:09;;;;;;;;;;;14.40;91.00;;;;;;5048721;28;19948;-84
2021/09/03 04:27:36;;;;;;;;;;;14.30;90.90;;;;;;5068163;28;19991;-84
2021/09/03 04:30:02;;;;;;;;;;;14.40;91.00;;;;;;5066822;28;19962;-84
2021/09/03 04:32:28;;;;;;;;;;;14.30;91.00;;;;;;5050267;28;19916;-84
2021/09/03 04:34:53;;;;;;;;;;;14.30;91.00;;;;;;5048748;28;19909;-84
2021/09/03 04:37:19;;;;;;;;;;;14.20;91.00;;;;;;5041231;28;19909;-84
2021/09/03 04:39:45;;;;;;;;;;;14.20;91.00;;;;;;5043631;28;19913;-84
2021/09/03 04:42:10;;;;;;;;;;;14.20;91.10;;;;;;5046099;28;19931;-84
2021/09/03 04:44:35;;;;;;;;;;;14.20;91.10;;;;;;5052093;28;19909;-84
2021/09/03 04:47:01;;;;;;;;;;;14.10;91.10;;;;;;5034281;28;19913;-84
2021/09/03 04:49:27;;;;;;;;;;;14.10;91.10;;;;;;5053375;28;20276;-84
2021/09/03 04:51:52;;;;;;;;;;;14.10;91.20;;;;;;5084446;28;19916;-84
2021/09/03 04:54:18;;;;;;;;;;;14.10;91.20;;;;;;5053528;28;19909;-84
2021/09/03 04:56:43;;;;;;;;;;;14.10;91.20;;;;;;5049555;28;19913;-84
2021/09/03 04:59:09;;;;;;;;;;;14.10;91.20;;;;;;5053310;28;19912;-84
2021/09/03 05:01:34;;;;;;;;;;;14.00;91.10;;;;;;5047645;28;19921;-84
2021/09/03 05:04:00;;;;;;;;;;;14.10;91.10;;;;;;5052005;28;20336;-85
2021/09/03 05:06:26;;;;;;;;;;;14.10;91.10;;;;;;5051564;28;19912;-85
2021/09/03 05:08:51;;;;;;;;;;;14.10;91.10;;;;;;5052945;28;19905;-85
2021/09/03 05:11:17;;;;;;;;;;;14.10;91.10;;;;;;5050911;28;20349;-84
2021/09/03 05:13:42;;;;;;;;;;;14.10;91.10;;;;;;5068528;28;19916;-84
2021/09/03 05:16:08;;;;;;;;;;;14.10;91.10;;;;;;5060760;28;19920;-84
2021/09/03 05:18:33;;;;;;;;;;;14.10;91.10;;;;;;5035071;28;19908;-84
2021/09/03 05:20:59;;;;;;;;;;;14.10;91.10;;;;;;5051582;28;19916;-84
2021/09/03 05:23:25;;;;;;;;;;;14.10;91.10;;;;;;5055585;28;19916;-84
2021/09/03 05:25:50;;;;;;;;;;;14.10;91.10;;;;;;5038265;28;20003;-84
2021/09/03 05:28:16;;;;;;;;;;;14.10;91.10;;;;;;5056021;28;19913;-84
2021/09/03 05:30:41;;;;;;;;;;;14.10;91.10;;;;;;5071169;28;19924;-84
2021/09/03 05:33:07;;;;;;;;;;;14.10;91.10;;;;;;5052641;28;19916;-85
2021/09/03 05:35:32;;;;;;;;;;;14.20;91.20;;;;;;5063218;28;20686;-84
2021/09/03 05:38:04;;;;;;;;;;;14.20;91.10;;;;;;5047689;28;19962;-84
2021/09/03 05:40:29;;;;;;;;;;;14.20;91.10;;;;;;5052986;28;19908;-84
2021/09/03 05:42:55;;;;;;;;;;;14.20;91.10;;;;;;5052962;28;19915;-84
2021/09/03 05:45:20;;;;;;;;;;;14.20;91.10;;;;;;5069357;28;20262;-84
2021/09/03 05:47:46;;;;;;;;;;;14.20;91.10;;;;;;5062261;28;19958;-84
2021/09/03 05:50:12;;;;;;;;;;;14.30;91.10;;;;;;5066857;28;19950;-84
2021/09/03 05:52:38;;;;;;;;;;;14.30;91.10;;;;;;5035681;28;19932;-84
2021/09/03 05:55:03;;;;;;;;;;;14.30;91.00;;;;;;5038909;28;20362;-85
2021/09/03 05:57:29;;;;;;;;;;;14.40;91.00;;;;;;5033910;28;20385;-84
2021/09/03 05:59:54;;;;;;;;;;;14.40;91.00;;;;;;5049472;28;20369;-84
2021/09/03 06:02:20;;;;;;;;;;;14.40;91.00;;;;;;5056817;28;19912;-85
2021/09/03 06:04:45;;;;;;;;;;;14.40;91.00;;;;;;5031743;28;21382;-84
2021/09/03 06:07:11;;;;;;;;;;;14.50;91.10;;;;;;5067391;28;19920;-85
2021/09/03 06:09:36;;;;;;;;;;;14.50;91.00;;;;;;5050777;28;19955;-85
2021/09/03 06:12:02;;;;;;;;;;;14.50;91.10;;;;;;5062676;28;19923;-85
2021/09/03 06:14:27;;;;;;;;;;;14.60;91.20;;;;;;5067786;28;20436;-85
2021/09/03 06:16:53;;;;;;;;;;;14.60;91.10;;;;;;5056013;28;19913;-84
2021/09/03 06:19:19;;;;;;;;;;;14.60;91.10;;;;;;5052613;28;20281;-85
2021/09/03 06:21:44;;;;;;;;;;;14.70;91.10;;;;;;5070022;28;20278;-85
2021/09/03 06:24:29;;;;;;;;;;;14.70;91.10;;;;;;5069558;28;20365;-85
2021/09/03 06:27:00;;;;;;;;;;;14.80;91.10;;;;;;5082512;28;20358;-85
2021/09/03 06:29:43;;;;;;;;;;;14.90;91.00;;;;;;5054773;28;19912;-85
2021/09/03 06:32:10;;;;;;;;;;;14.90;91.00;;;;;;5086199;28;19913;-85
2021/09/03 06:34:40;;;;;;;;;;;15.00;90.90;;;;;;5041776;28;19991;-85
2021/09/03 06:37:05;;;;;;;;;;;15.10;90.90;;;;;;5051263;28;19958;-84
2021/09/03 06:39:31;;;;;;;;;;;15.10;90.80;;;;;;5053412;28;19913;-84
2021/09/03 06:42:00;;;;;;;;;;;15.20;90.80;;;;;;5066993;28;19909;-83
2021/09/03 06:44:26;;;;;;;;;;;15.30;90.80;;;;;;5044957;28;20619;-85
2021/09/03 06:46:51;;;;;;;;;;;15.40;90.80;;;;;;5054959;28;20000;-85
2021/09/03 06:49:17;;;;;;;;;;;15.50;90.80;;;;;;5053458;28;19931;-84
2021/09/03 06:51:42;;;;;;;;;;;15.50;90.70;;;;;;5053625;28;19960;-85
2021/09/03 06:54:08;;;;;;;;;;;15.60;90.60;;;;;;5036975;28;20361;-86
2021/09/03 06:56:33;;;;;;;;;;;15.80;90.50;;;;;;5053717;28;20439;-86
2021/09/03 06:59:00;;;;;;;;;;;15.90;90.40;;;;;;5037015;28;19912;-86
2021/09/03 07:01:26;;;;;;;;;;;16.00;90.30;;;;;;5053173;28;19927;-86
2021/09/03 07:03:51;;;;;;;;;;;16.10;90.30;;;;;;5053354;28;19908;-86
2021/09/03 07:06:17;;;;;;;;;;;16.20;90.10;;;;;;5054833;28;19949;-87
2021/09/03 07:08:42;;;;;;;;;;;16.40;90.00;;;;;;5053720;28;19915;-87
2021/09/03 07:11:08;;;;;;;;;;;16.50;89.70;;;;;;5036146;28;20263;-86
2021/09/03 07:13:35;;;;;;;;;;;16.60;89.50;;;;;;5036917;28;19913;-87
2021/09/03 07:16:01;;;;;;;;;;;16.70;89.40;;;;;;5036735;28;19915;-86
2021/09/03 07:18:26;;;;;;;;;;;16.80;89.20;;;;;;5053415;28;20358;-86
2021/09/03 07:20:52;;;;;;;;;;;17.00;89.00;;;;;;5054368;28;19962;-86
2021/09/03 07:23:17;;;;;;;;;;;17.10;88.80;;;;;;5035496;28;19916;-86
2021/09/03 07:25:43;;;;;;;;;;;17.20;88.50;;;;;;5086174;28;19913;-86
2021/09/03 07:28:08;;;;;;;;;;;17.40;88.20;;;;;;5052080;28;20423;-86
2021/09/03 07:30:34;;;;;;;;;;;17.60;88.40;;;;;;5050841;28;19939;-85
2021/09/03 07:32:59;;;;;;;;;;;17.70;87.40;;;;;;5052349;28;20002;-86
2021/09/03 07:35:25;;;;;;;;;;;17.80;87.20;;;;;;5036293;28;19909;-86
2021/09/03 07:37:51;;;;;;;;;;;17.90;86.90;;;;;;5052540;28;19911;-76
2021/09/03 07:40:17;;;;;;;;;;;18.00;86.80;;;;;;5052519;28;19917;-85
2021/09/03 07:42:43;;;;;;;;;;;18.20;86.60;;;;;;5053344;28;20246;-85
2021/09/03 07:45:08;;;;;;;;;;;18.30;86.10;;;;;;5069230;28;19912;-85
2021/09/03 07:47:34;;;;;;;;;;;18.40;85.60;;;;;;5052849;28;20289;-85
2021/09/03 07:49:59;;;;;;;;;;;18.50;85.50;;;;;;5052421;28;20285;-85
2021/09/03 07:52:25;;;;;;;;;;;18.60;85.30;;;;;;5054072;28;19920;-85
2021/09/03 07:54:50;;;;;;;;;;;18.70;85.20;;;;;;5052403;28;19908;-85
2021/09/03 07:57:16;;;;;;;;;;;18.80;85.00;;;;;;5069241;28;19912;-84
2021/09/03 07:59:44;;;;;;;;;;;19.00;84.70;;;;;;5069427;28;20018;-84
2021/09/03 08:02:11;;;;;;;;;;;19.20;84.20;;;;;;5068730;28;20376;-88
2021/09/03 08:04:36;;;;;;;;;;;19.30;83.70;;;;;;5052589;28;19909;-86
2021/09/03 08:07:02;;;;;;;;;;;19.40;83.50;;;;;;5068842;28;19955;-83
2021/09/03 08:09:28;;;;;;;;;;;19.50;82.70;;;;;;5086194;28;19913;-85
2021/09/03 08:11:53;;;;;;;;;;;19.60;82.60;;;;;;5068957;28;20283;-85
2021/09/03 08:14:19;;;;;;;;;;;19.70;82.50;;;;;;5069161;28;20356;-84
2021/09/03 08:16:44;;;;;;;;;;;19.80;82.50;;;;;;5086103;28;19909;-85
2021/09/03 08:19:10;;;;;;;;;;;19.90;81.90;;;;;;5068777;28;19962;-85
2021/09/03 08:21:35;;;;;;;;;;;20.00;81.50;;;;;;5053158;28;19916;-84
2021/09/03 08:24:01;;;;;;;;;;;20.20;81.60;;;;;;5068916;28;19916;-85
2021/09/03 08:26:26;;;;;;;;;;;20.30;81.20;;;;;;5085798;28;19908;-85
2021/09/03 08:28:52;;;;;;;;;;;20.40;80.70;;;;;;5052623;28;19935;-85
2021/09/03 08:31:18;;;;;;;;;;;20.50;80.40;;;;;;5068893;28;20037;-85
2021/09/03 08:33:43;;;;;;;;;;;20.60;79.20;;;;;;5053089;28;19904;-84
2021/09/03 08:36:09;;;;;;;;;;;20.70;79.40;;;;;;5052294;28;19919;-84
2021/09/03 08:38:34;;;;;;;;;;;20.80;78.10;;;;;;5052425;28;19915;-85
2021/09/03 08:41:00;;;;;;;;;;;20.90;78.10;;;;;;5053080;28;20349;-85
2021/09/03 08:43:26;;;;;;;;;;;21.00;78.00;;;;;;5052120;28;20003;-86
2021/09/03 08:45:52;;;;;;;;;;;21.00;77.80;;;;;;5035481;28;19949;-84
2021/09/03 08:48:19;;;;;;;;;;;21.10;77.00;;;;;;5052143;28;19959;-85
2021/09/03 08:50:45;;;;;;;;;;;21.10;77.20;;;;;;5035486;28;19935;-81
2021/09/03 08:53:14;;;;;;;;;;;21.20;77.60;;;;;;5051945;28;19912;-81
2021/09/03 08:55:42;;;;;;;;;;;21.40;76.80;;;;;;5055703;28;19908;-80
2021/09/03 08:58:07;;;;;;;;;;;21.50;76.60;;;;;;5056096;28;19901;-80
2021/09/03 09:00:35;;;;;;;;;;;21.60;76.60;;;;;;5055296;28;19974;-82
2021/09/03 09:03:07;;;;;;;;;;;21.70;75.40;;;;;;5056048;28;20531;-79
2021/09/03 09:05:53;;;;;;;;;;;21.80;74.60;;;;;;5056953;28;19950;-82
2021/09/03 09:08:19;;;;;;;;;;;21.80;75.20;;;;;;5054614;28;19912;-82
2021/09/03 09:10:46;;;;;;;;;;;21.90;74.70;;;;;;5056844;28;20284;-80
2021/09/03 09:13:15;;;;;;;;;;;22.00;73.20;;;;;;5056804;28;20269;-79
2021/09/03 09:15:41;;;;;;;;;;;21.90;74.10;;;;;;5039068;28;19909;-80
2021/09/03 09:18:06;;;;;;;;;;;22.00;73.60;;;;;;5055438;28;19928;-80
2021/09/03 09:20:33;;;;;;;;;;;22.10;73.80;;;;;;5056411;28;20014;-81
2021/09/03 09:23:03;;;;;;;;;;;22.20;74.10;;;;;;5039127;28;19913;-82
2021/09/03 09:25:30;;;;;;;;;;;22.30;72.50;;;;;;5055393;28;20308;-82
2021/09/03 09:28:13;;;;;;;;;;;22.30;73.20;;;;;;5056479;28;19997;-81
2021/09/03 09:30:40;;;;;;;;;;;22.40;73.20;;;;;;5054421;28;19917;-82
2021/09/03 09:33:16;;;;;;;;;;;22.60;73.20;;;;;;5055201;28;19905;-82
2021/09/03 09:35:43;;;;;;;;;;;22.80;72.80;;;;;;5037328;28;19967;-81
2021/09/03 09:38:09;;;;;;;;;;;22.80;71.70;;;;;;5034665;28;19945;-81
2021/09/03 09:40:44;;;;;;;;;;;22.80;70.90;;;;;;5069396;28;20318;-81
2021/09/03 09:43:29;;;;;;;;;;;22.80;70.90;;;;;;5071493;28;20388;-81
2021/09/03 09:46:15;;;;;;;;;;;22.90;71.30;;;;;;5054920;28;19912;-78
2021/09/03 09:48:50;;;;;;;;;;;23.00;70.80;;;;;;5054469;28;20002;-78
2021/09/03 09:51:22;;;;;;;;;;;23.00;69.30;;;;;;5056136;28;19913;-77
2021/09/03 09:54:09;;;;;;;;;;;23.00;69.20;;;;;;5054658;28;19955;-80
2021/09/03 09:56:35;;;;;;;;;;;23.10;69.00;;;;;;5054326;28;19905;-79
2021/09/03 09:59:03;;;;;;;;;;;23.10;68.20;;;;;;5054410;28;20289;-78
2021/09/03 10:01:29;;;;;;;;;;;23.20;67.50;;;;;;5053789;28;19925;-77
2021/09/03 10:03:55;;;;;;;;;;;23.20;67.60;;;;;;5055661;28;19905;-78
2021/09/03 10:06:22;;;;;;;;;;;23.30;67.00;;;;;;5054344;28;19959;-76
2021/09/03 10:08:48;;;;;;;;;;;23.30;67.00;;;;;;5053904;28;19962;-78
2021/09/03 10:11:15;;;;;;;;;;;23.40;67.90;;;;;;5087358;28;19956;-78
2021/09/03 10:13:40;;;;;;;;;;;23.50;68.00;;;;;;5054458;28;19958;-77
2021/09/03 10:16:06;;;;;;;;;;;23.60;66.60;;;;;;5053096;28;19914;-77
2021/09/03 10:18:33;;;;;;;;;;;23.70;66.40;;;;;;5054625;28;19992;-77
2021/09/03 10:20:59;;;;;;;;;;;23.70;66.50;;;;;;5054053;28;19915;-77
2021/09/03 10:23:44;;;;;;;;;;;23.80;66.30;;;;;;5053558;28;19905;-82
2021/09/03 10:26:09;;;;;;;;;;;24.00;67.00;;;;;;5053343;28;19915;-80
2021/09/03 10:28:35;;;;;;;;;;;24.10;65.70;;;;;;5054789;28;19913;-85
2021/09/03 10:31:07;;;;;;;;;;;24.20;66.30;;;;;;5054920;28;19985;-86
2021/09/03 10:33:37;;;;;;;;;;;24.30;64.50;;;;;;5053972;28;19963;-78
2021/09/03 10:36:03;;;;;;;;;;;24.30;64.60;;;;;;5053325;28;19912;-78
2021/09/03 10:38:29;;;;;;;;;;;24.40;64.80;;;;;;5053136;28;20276;-79
2021/09/03 10:40:55;;;;;;;;;;;24.40;64.40;;;;;;5053725;28;19909;-78
2021/09/03 10:43:39;;;;;;;;;;;24.50;64.90;;;;;;5053659;28;20331;-78
2021/09/03 10:46:09;;;;;;;;;;;24.50;62.60;;;;;;5052776;28;19913;-78
2021/09/03 10:48:34;;;;;;;;;;;24.50;61.70;;;;;;5053532;28;19962;-79
2021/09/03 10:51:00;;;;;;;;;;;24.50;62.70;;;;;;5054682;28;19909;-78
2021/09/03 10:53:27;;;;;;;;;;;24.50;62.20;;;;;;5054956;28;19916;-78
2021/09/03 10:56:01;;;;;;;;;;;24.60;62.70;;;;;;5053088;28;20288;-79
2021/09/03 10:58:36;;;;;;;;;;;24.60;62.70;;;;;;5055491;28;19912;-79
2021/09/03 11:01:14;;;;;;;;;;;24.60;62.90;;;;;;5069948;28;19923;-78
2021/09/03 11:03:45;;;;;;;;;;;24.80;62.50;;;;;;5069108;28;20372;-78
2021/09/03 11:06:14;;;;;;;;;;;24.80;61.80;;;;;;5054207;28;19912;-77
2021/09/03 11:08:44;;;;;;;;;;;24.90;61.70;;;;;;5044994;28;19909;-79
2021/09/03 11:11:45;;;;;;;;;;;24.90;61.50;;;;;;5054545;28;19916;-77
2021/09/03 11:14:14;;;;;;;;;;;25.00;61.60;;;;;;5051947;28;20004;-76
2021/09/03 11:16:43;;;;;;;;;;;25.10;61.60;;;;;;5048800;28;20010;-79
2021/09/03 11:19:09;;;;;;;;;;;25.10;61.10;;;;;;5053838;28;19951;-77
2021/09/03 11:21:37;;;;;;;;;;;25.20;61.90;;;;;;5053016;28;19905;-77
2021/09/03 11:24:02;;;;;;;;;;;25.20;60.30;;;;;;5052734;28;20042;-78
2021/09/03 11:26:29;;;;;;;;;;;25.20;60.20;;;;;;5053540;28;19982;-79
2021/09/03 11:28:56;;;;;;;;;;;25.20;59.90;;;;;;5052087;28;20023;-77
2021/09/03 11:31:21;;;;;;;;;;;25.20;60.70;;;;;;5052616;28;19959;-77
2021/09/03 11:33:47;;;;;;;;;;;25.30;61.20;;;;;;5053427;28;19954;-77
2021/09/03 11:36:13;;;;;;;;;;;25.40;60.40;;;;;;5051965;28;19951;-77
2021/09/03 11:38:39;;;;;;;;;;;25.50;60.70;;;;;;5052719;28;20278;-76
2021/09/03 11:41:09;;;;;;;;;;;25.60;60.50;;;;;;5052846;28;19908;-76
2021/09/03 11:43:34;;;;;;;;;;;25.60;60.10;;;;;;5047218;28;19995;-77
2021/09/03 11:46:00;;;;;;;;;;;25.60;60.00;;;;;;5052869;28;19909;-77
2021/09/03 11:48:25;;;;;;;;;;;25.70;60.50;;;;;;5032458;28;19909;-78
2021/09/03 11:50:51;;;;;;;;;;;25.80;60.20;;;;;;5064897;28;20010;-78
2021/09/03 11:53:16;;;;;;;;;;;25.80;59.40;;;;;;5068811;28;20017;-77
2021/09/03 11:55:46;;;;;;;;;;;25.80;58.30;;;;;;5053564;28;19905;-78
2021/09/03 11:58:16;;;;;;;;;;;25.80;57.80;;;;;;5052199;28;19908;-78
2021/09/03 12:00:43;;;;;;;;;;;25.90;56.40;;;;;;5051644;28;20421;-78
2021/09/03 12:03:19;;;;;;;;;;;25.90;57.00;;;;;;5052036;28;19905;-78
2021/09/03 12:05:45;;;;;;;;;;;25.90;56.90;;;;;;5051568;28;20377;-78
2021/09/03 12:08:15;;;;;;;;;;;25.90;57.30;;;;;;5052133;28;19958;-78
2021/09/03 12:10:53;;;;;;;;;;;25.90;57.70;;;;;;5051740;28;19917;-78
2021/09/03 12:13:19;;;;;;;;;;;26.00;57.50;;;;;;5052141;28;19999;-78
2021/09/03 12:15:46;;;;;;;;;;;26.10;57.60;;;;;;5051975;28;19909;-78
2021/09/03 12:18:19;;;;;;;;;;;26.10;56.90;;;;;;5052035;28;19904;-78
2021/09/03 12:20:53;;;;;;;;;;;26.20;57.70;;;;;;5053255;28;19955;-78
2021/09/03 12:23:18;;;;;;;;;;;26.30;57.40;;;;;;5057792;28;20426;-78
2021/09/03 12:25:44;;;;;;;;;;;26.40;57.80;;;;;;5070315;28;19905;-78
2021/09/03 12:28:19;;;;;;;;;;;26.40;55.80;;;;;;5051586;28;19905;-78
2021/09/03 12:30:49;;;;;;;;;;;26.50;56.40;;;;;;5055556;28;20350;-78
2021/09/03 12:33:22;;;;;;;;;;;26.50;54.60;;;;;;5055654;28;19995;-78
2021/09/03 12:35:48;;;;;;;;;;;26.50;54.90;;;;;;5056744;28;19958;-77
2021/09/03 12:38:14;;;;;;;;;;;26.40;54.30;;;;;;5054534;28;19944;-78
2021/09/03 12:40:39;;;;;;;;;;;26.40;53.80;;;;;;5054920;28;19956;-78
2021/09/03 12:43:12;;;;;;;;;;;26.40;54.90;;;;;;5054986;28;19912;-78
2021/09/03 12:45:45;;;;;;;;;;;26.40;54.50;;;;;;5055073;28;19999;-78
2021/09/03 12:48:10;;;;;;;;;;;26.50;55.20;;;;;;5054937;28;19912;-78
2021/09/03 12:50:36;;;;;;;;;;;26.50;55.10;;;;;;5054031;28;20373;-78
2021/09/03 12:53:03;;;;;;;;;;;26.60;55.00;;;;;;5055195;28;19905;-78
2021/09/03 12:55:29;;;;;;;;;;;26.60;54.40;;;;;;5089032;28;19963;-78
2021/09/03 12:57:54;;;;;;;;;;;26.60;54.40;;;;;;5055534;28;20289;-78
2021/09/03 13:00:20;;;;;;;;;;;26.70;54.80;;;;;;5071842;28;19921;-78
2021/09/03 13:02:45;;;;;;;;;;;26.70;54.30;;;;;;5072225;28;19966;-78
2021/09/03 13:05:11;;;;;;;;;;;26.80;53.90;;;;;;5055676;28;19954;-78
2021/09/03 13:07:36;;;;;;;;;;;26.70;52.90;;;;;;5072094;28;19999;-78
2021/09/03 13:10:02;;;;;;;;;;;26.70;53.40;;;;;;5071953;28;19919;-79
2021/09/03 13:12:27;;;;;;;;;;;26.70;53.30;;;;;;5072113;28;20055;-78
2021/09/03 13:14:53;;;;;;;;;;;26.70;53.90;;;;;;5071990;28;19913;-78
2021/09/03 13:17:18;;;;;;;;;;;26.70;53.30;;;;;;5072118;28;19909;-78
2021/09/03 13:19:47;;;;;;;;;;;26.70;53.50;;;;;;5071551;28;20309;-78
2021/09/03 13:22:13;;;;;;;;;;;26.80;52.80;;;;;;5056349;28;20419;-78
2021/09/03 13:24:38;;;;;;;;;;;26.80;52.90;;;;;;5055081;28;19912;-78
2021/09/03 13:27:04;;;;;;;;;;;26.80;53.30;;;;;;5054953;28;19911;-78
2021/09/03 13:29:29;;;;;;;;;;;26.90;53.10;;;;;;5056305;28;19912;-78
2021/09/03 13:31:55;;;;;;;;;;;26.90;52.80;;;;;;5071262;28;19913;-78
2021/09/03 13:34:24;;;;;;;;;;;26.90;52.50;;;;;;5055131;28;19913;-78
2021/09/03 13:36:49;;;;;;;;;;;26.90;53.00;;;;;;5054383;28;19913;-78
2021/09/03 13:39:15;;;;;;;;;;;26.80;51.40;;;;;;5054777;28;20262;-78
2021/09/03 13:41:40;;;;;;;;;;;26.80;51.60;;;;;;5070361;28;19924;-78
2021/09/03 13:44:06;;;;;;;;;;;26.80;52.10;;;;;;5071485;28;20544;-78
2021/09/03 13:46:31;;;;;;;;;;;26.80;52.40;;;;;;5071357;28;19913;-78
2021/09/03 13:48:57;;;;;;;;;;;26.80;52.50;;;;;;5071006;28;20285;-77
2021/09/03 13:51:25;;;;;;;;;;;26.90;52.60;;;;;;5071280;28;19909;-79
2021/09/03 13:53:52;;;;;;;;;;;26.90;52.70;;;;;;5070732;28;19909;-79
2021/09/03 13:56:17;;;;;;;;;;;26.90;52.00;;;;;;5054171;28;20289;-78
2021/09/03 13:58:43;;;;;;;;;;;26.90;52.50;;;;;;5054040;28;19912;-78
2021/09/03 14:01:08;;;;;;;;;;;26.80;52.40;;;;;;5053863;28;20475;-78
2021/09/03 14:03:34;;;;;;;;;;;26.80;51.40;;;;;;5055454;28;19908;-78
2021/09/03 14:06:00;;;;;;;;;;;26.80;52.20;;;;;;5053118;28;19905;-78
2021/09/03 14:08:25;;;;;;;;;;;26.70;51.10;;;;;;5070414;28;19962;-78
2021/09/03 14:10:51;;;;;;;;;;;26.60;51.20;;;;;;5069824;28;19908;-78
2021/09/03 14:13:18;;;;;;;;;;;26.60;51.90;;;;;;5053889;28;19908;-78